sensor_id;sensor_type;location;lat;lon;timestamp;temperature;humidity
7000;DHT22;3540;53.242;10.408;2024-03-08T00:01:09;1.60;99.90
7000;DHT22;3540;53.242;10.408;2024-03-08T00:03:35;1.60;99.90
7000;DHT22;3540;53.242;10.408;2024-03-08T00:06:01;1.60;99.90
7000;DHT22;3540;53.242;10.408;2024-03-08T00:08:28;1.60;99.90
7000;DHT22;3540;53.242;10.408;2024-03-08T00:10:53;1.60;99.90
7000;DHT22;3540;53.242;10.408;2024-03-08T00:13:19;1.50;99.90
7000;DHT22;3540;53.242;10.408;2024-03-08T00:15:45;1.50;99.90
7000;DHT22;3540;53.242;10.408;2024-03-08T00:18:10;1.50;99.90
7000;DHT22;3540;53.242;10.408;2024-03-08T00:20:37;1.40;99.90
7000;DHT22;3540;53.242;10.408;2024-03-08T00:23:02;1.30;99.90
7000;DHT22;3540;53.242;10.408;2024-03-08T00:25:28;1.30;99.90
7000;DHT22;3540;53.242;10.408;2024-03-08T00:27:54;1.30;99.90
7000;DHT22;3540;53.242;10.408;2024-03-08T00:30:23;1.20;99.90
7000;DHT22;3540;53.242;10.408;2024-03-08T00:32:50;1.20;99.90
7000;DHT22;3540;53.242;10.408;2024-03-08T00:35:16;1.20;99.90
7000;DHT22;3540;53.242;10.408;2024-03-08T00:37:41;1.20;99.90
7000;DHT22;3540;53.242;10.408;2024-03-08T00:40:08;1.10;99.90
7000;DHT22;3540;53.242;10.408;2024-03-08T00:42:35;1.10;99.90
7000;DHT22;3540;53.242;10.408;2024-03-08T00:45:01;1.00;99.90
7000;DHT22;3540;53.242;10.408;2024-03-08T00:47:26;1.00;99.90
7000;DHT22;3540;53.242;10.408;2024-03-08T00:49:52;1.00;99.90
7000;DHT22;3540;53.242;10.408;2024-03-08T00:52:18;1.10;99.90
7000;DHT22;3540;53.242;10.408;2024-03-08T00:54:44;1.10;99.90
7000;DHT22;3540;53.242;10.408;2024-03-08T00:57:10;1.00;99.90
7000;DHT22;3540;53.242;10.408;2024-03-08T00:59:38;1.00;99.90
7000;DHT22;3540;53.242;10.408;2024-03-08T01:02:04;1.00;99.90
7000;DHT22;3540;53.242;10.408;2024-03-08T01:04:29;0.90;99.90
7000;DHT22;3540;53.242;10.408;2024-03-08T01:06:56;0.90;99.90
7000;DHT22;3540;53.242;10.408;2024-03-08T01:09:23;0.90;99.90
7000;DHT22;3540;53.242;10.408;2024-03-08T01:11:48;0.90;99.90
7000;DHT22;3540;53.242;10.408;2024-03-08T01:14:15;0.90;99.90
7000;DHT22;3540;53.242;10.408;2024-03-08T01:16:41;0.90;99.90
7000;DHT22;3540;53.242;10.408;2024-03-08T01:19:06;0.80;99.90
7000;DHT22;3540;53.242;10.408;2024-03-08T01:21:32;0.80;99.90
7000;DHT22;3540;53.242;10.408;2024-03-08T01:23:58;0.70;99.90
7000;DHT22;3540;53.242;10.408;2024-03-08T01:26:23;0.70;99.90
7000;DHT22;3540;53.242;10.408;2024-03-08T01:28:49;0.70;99.90
7000;DHT22;3540;53.242;10.408;2024-03-08T01:31:15;0.70;99.90
7000;DHT22;3540;53.242;10.408;2024-03-08T01:33:42;0.70;99.90
7000;DHT22;3540;53.242;10.408;2024-03-08T01:36:08;0.60;99.90
7000;DHT22;3540;53.242;10.408;2024-03-08T01:38:33;0.50;99.90
7000;DHT22;3540;53.242;10.408;2024-03-08T01:40:59;0.60;99.90
7000;DHT22;3540;53.242;10.408;2024-03-08T01:43:28;0.60;99.90
7000;DHT22;3540;53.242;10.408;2024-03-08T01:45:56;0.50;99.90
7000;DHT22;3540;53.242;10.408;2024-03-08T01:48:23;0.50;99.90
7000;DHT22;3540;53.242;10.408;2024-03-08T01:50:49;0.50;99.90
7000;DHT22;3540;53.242;10.408;2024-03-08T01:53:17;0.40;99.90
7000;DHT22;3540;53.242;10.408;2024-03-08T01:55:44;0.40;99.90
7000;DHT22;3540;53.242;10.408;2024-03-08T01:58:12;0.40;99.90
7000;DHT22;3540;53.242;10.408;2024-03-08T02:00:42;0.40;99.90
7000;DHT22;3540;53.242;10.408;2024-03-08T02:03:09;0.40;99.90
7000;DHT22;3540;53.242;10.408;2024-03-08T02:05:35;0.40;99.90
7000;DHT22;3540;53.242;10.408;2024-03-08T02:08:01;0.30;99.90
7000;DHT22;3540;53.242;10.408;2024-03-08T02:10:28;0.30;99.90
7000;DHT22;3540;53.242;10.408;2024-03-08T02:12:54;0.30;99.90
7000;DHT22;3540;53.242;10.408;2024-03-08T02:15:20;0.30;99.90
7000;DHT22;3540;53.242;10.408;2024-03-08T02:17:46;0.30;99.90
7000;DHT22;3540;53.242;10.408;2024-03-08T02:20:12;0.20;99.90
7000;DHT22;3540;53.242;10.408;2024-03-08T02:22:38;0.20;99.90
7000;DHT22;3540;53.242;10.408;2024-03-08T02:25:04;0.20;99.90
7000;DHT22;3540;53.242;10.408;2024-03-08T02:27:31;0.10;99.90
7000;DHT22;3540;53.242;10.408;2024-03-08T02:29:57;0.00;99.90
7000;DHT22;3540;53.242;10.408;2024-03-08T02:32:23;0.00;99.90
7000;DHT22;3540;53.242;10.408;2024-03-08T02:34:49;-0.10;99.90
7000;DHT22;3540;53.242;10.408;2024-03-08T02:37:18;-0.10;99.90
7000;DHT22;3540;53.242;10.408;2024-03-08T02:39:43;0.00;99.90
7000;DHT22;3540;53.242;10.408;2024-03-08T02:42:09;0.10;99.90
7000;DHT22;3540;53.242;10.408;2024-03-08T02:44:35;0.10;99.90
7000;DHT22;3540;53.242;10.408;2024-03-08T02:47:00;0.00;99.90
7000;DHT22;3540;53.242;10.408;2024-03-08T02:49:26;0.00;99.90
7000;DHT22;3540;53.242;10.408;2024-03-08T02:51:55;0.00;99.90
7000;DHT22;3540;53.242;10.408;2024-03-08T02:54:22;0.00;99.90
7000;DHT22;3540;53.242;10.408;2024-03-08T02:56:49;0.00;99.90
7000;DHT22;3540;53.242;10.408;2024-03-08T02:59:17;0.00;99.90
7000;DHT22;3540;53.242;10.408;2024-03-08T03:01:44;0.00;99.90
7000;DHT22;3540;53.242;10.408;2024-03-08T03:04:09;0.00;99.90
7000;DHT22;3540;53.242;10.408;2024-03-08T03:06:35;-0.10;99.90
7000;DHT22;3540;53.242;10.408;2024-03-08T03:09:01;-0.10;99.90
7000;DHT22;3540;53.242;10.408;2024-03-08T03:11:27;-0.10;99.90
7000;DHT22;3540;53.242;10.408;2024-03-08T03:13:53;-0.10;99.90
7000;DHT22;3540;53.242;10.408;2024-03-08T03:16:21;-0.20;99.90
7000;DHT22;3540;53.242;10.408;2024-03-08T03:18:47;-0.20;99.90
7000;DHT22;3540;53.242;10.408;2024-03-08T03:21:13;-0.20;99.90
7000;DHT22;3540;53.242;10.408;2024-03-08T03:23:39;-0.10;99.90
7000;DHT22;3540;53.242;10.408;2024-03-08T03:26:06;-0.20;99.90
7000;DHT22;3540;53.242;10.408;2024-03-08T03:28:34;-0.20;99.90
7000;DHT22;3540;53.242;10.408;2024-03-08T03:30:59;-0.10;99.90
7000;DHT22;3540;53.242;10.408;2024-03-08T03:33:26;-0.20;99.90
7000;DHT22;3540;53.242;10.408;2024-03-08T03:35:52;-0.20;99.90
7000;DHT22;3540;53.242;10.408;2024-03-08T03:38:18;-0.20;99.90
7000;DHT22;3540;53.242;10.408;2024-03-08T03:40:45;-0.20;99.90
7000;DHT22;3540;53.242;10.408;2024-03-08T03:43:11;-0.30;99.90
7000;DHT22;3540;53.242;10.408;2024-03-08T03:45:38;-0.30;99.90
7000;DHT22;3540;53.242;10.408;2024-03-08T03:48:05;-0.30;99.90
7000;DHT22;3540;53.242;10.408;2024-03-08T03:50:37;-0.30;99.90
7000;DHT22;3540;53.242;10.408;2024-03-08T03:53:04;-0.30;99.90
7000;DHT22;3540;53.242;10.408;2024-03-08T03:55:29;-0.40;99.90
7000;DHT22;3540;53.242;10.408;2024-03-08T03:57:55;-0.40;99.90
7000;DHT22;3540;53.242;10.408;2024-03-08T04:00:21;-0.40;99.90
7000;DHT22;3540;53.242;10.408;2024-03-08T04:02:46;-0.50;99.90
7000;DHT22;3540;53.242;10.408;2024-03-08T04:05:12;-0.40;99.90
7000;DHT22;3540;53.242;10.408;2024-03-08T04:07:39;-0.40;99.90
7000;DHT22;3540;53.242;10.408;2024-03-08T04:10:06;-0.40;99.90
7000;DHT22;3540;53.242;10.408;2024-03-08T04:12:33;-0.50;99.90
7000;DHT22;3540;53.242;10.408;2024-03-08T04:14:59;-0.50;99.90
7000;DHT22;3540;53.242;10.408;2024-03-08T04:17:24;-0.50;99.90
7000;DHT22;3540;53.242;10.408;2024-03-08T04:19:50;-0.50;99.90
7000;DHT22;3540;53.242;10.408;2024-03-08T04:22:16;-0.50;99.90
7000;DHT22;3540;53.242;10.408;2024-03-08T04:24:43;-0.50;99.90
7000;DHT22;3540;53.242;10.408;2024-03-08T04:27:09;-0.60;99.90
7000;DHT22;3540;53.242;10.408;2024-03-08T04:29:34;-0.50;99.90
7000;DHT22;3540;53.242;10.408;2024-03-08T04:32:03;-0.60;99.90
7000;DHT22;3540;53.242;10.408;2024-03-08T04:34:29;-0.60;99.90
7000;DHT22;3540;53.242;10.408;2024-03-08T04:36:57;-0.50;99.90
7000;DHT22;3540;53.242;10.408;2024-03-08T04:39:22;-0.50;99.90
7000;DHT22;3540;53.242;10.408;2024-03-08T04:41:49;-0.60;99.90
7000;DHT22;3540;53.242;10.408;2024-03-08T04:44:16;-0.50;99.90
7000;DHT22;3540;53.242;10.408;2024-03-08T04:46:43;-0.60;99.90
7000;DHT22;3540;53.242;10.408;2024-03-08T04:49:08;-0.60;99.90
7000;DHT22;3540;53.242;10.408;2024-03-08T04:51:34;-0.70;99.90
7000;DHT22;3540;53.242;10.408;2024-03-08T04:54:00;-0.60;99.90
7000;DHT22;3540;53.242;10.408;2024-03-08T04:56:26;-0.60;99.90
7000;DHT22;3540;53.242;10.408;2024-03-08T04:58:51;-0.60;99.90
7000;DHT22;3540;53.242;10.408;2024-03-08T05:01:17;-0.70;99.90
7000;DHT22;3540;53.242;10.408;2024-03-08T05:03:42;-0.70;99.90
7000;DHT22;3540;53.242;10.408;2024-03-08T05:06:09;-0.70;99.90
7000;DHT22;3540;53.242;10.408;2024-03-08T05:08:34;-0.60;99.90
7000;DHT22;3540;53.242;10.408;2024-03-08T05:11:00;-0.60;99.90
7000;DHT22;3540;53.242;10.408;2024-03-08T05:13:30;-0.70;99.90
7000;DHT22;3540;53.242;10.408;2024-03-08T05:15:56;-0.70;99.90
7000;DHT22;3540;53.242;10.408;2024-03-08T05:18:24;-0.70;99.90
7000;DHT22;3540;53.242;10.408;2024-03-08T05:20:50;-0.70;99.90
7000;DHT22;3540;53.242;10.408;2024-03-08T05:23:17;-0.70;99.90
7000;DHT22;3540;53.242;10.408;2024-03-08T05:25:45;-0.70;99.90
7000;DHT22;3540;53.242;10.408;2024-03-08T05:28:12;-0.70;99.90
7000;DHT22;3540;53.242;10.408;2024-03-08T05:30:38;-0.60;99.90
7000;DHT22;3540;53.242;10.408;2024-03-08T05:33:04;-0.60;99.90
7000;DHT22;3540;53.242;10.408;2024-03-08T05:35:30;-0.60;99.90
7000;DHT22;3540;53.242;10.408;2024-03-08T05:37:56;-0.60;99.90
7000;DHT22;3540;53.242;10.408;2024-03-08T05:40:21;-0.60;99.90
7000;DHT22;3540;53.242;10.408;2024-03-08T05:42:47;-0.60;99.90
7000;DHT22;3540;53.242;10.408;2024-03-08T05:45:12;-0.60;99.90
7000;DHT22;3540;53.242;10.408;2024-03-08T05:47:39;-0.50;99.90
7000;DHT22;3540;53.242;10.408;2024-03-08T05:50:06;-0.40;99.90
7000;DHT22;3540;53.242;10.408;2024-03-08T05:52:33;-0.50;99.90
7000;DHT22;3540;53.242;10.408;2024-03-08T05:54:59;-0.50;99.90
7000;DHT22;3540;53.242;10.408;2024-03-08T05:57:24;-0.50;99.90
7000;DHT22;3540;53.242;10.408;2024-03-08T05:59:50;-0.50;99.90
7000;DHT22;3540;53.242;10.408;2024-03-08T06:02:15;-0.50;99.90
7000;DHT22;3540;53.242;10.408;2024-03-08T06:04:46;-0.50;99.90
7000;DHT22;3540;53.242;10.408;2024-03-08T06:07:12;-0.40;99.90
7000;DHT22;3540;53.242;10.408;2024-03-08T06:09:38;-0.40;99.90
7000;DHT22;3540;53.242;10.408;2024-03-08T06:12:04;-0.40;99.90
7000;DHT22;3540;53.242;10.408;2024-03-08T06:14:31;-0.40;99.90
7000;DHT22;3540;53.242;10.408;2024-03-08T06:16:57;-0.40;99.90
7000;DHT22;3540;53.242;10.408;2024-03-08T06:19:23;-0.40;99.90
7000;DHT22;3540;53.242;10.408;2024-03-08T06:21:49;-0.40;99.90
7000;DHT22;3540;53.242;10.408;2024-03-08T06:24:14;-0.40;99.90
7000;DHT22;3540;53.242;10.408;2024-03-08T06:26:43;-0.30;99.90
7000;DHT22;3540;53.242;10.408;2024-03-08T06:29:08;-0.30;99.90
7000;DHT22;3540;53.242;10.408;2024-03-08T06:31:34;-0.30;99.90
7000;DHT22;3540;53.242;10.408;2024-03-08T06:34:00;-0.30;99.90
7000;DHT22;3540;53.242;10.408;2024-03-08T06:36:25;-0.30;99.90
7000;DHT22;3540;53.242;10.408;2024-03-08T06:38:51;-0.30;99.90
7000;DHT22;3540;53.242;10.408;2024-03-08T06:41:17;-0.20;99.90
7000;DHT22;3540;53.242;10.408;2024-03-08T06:43:47;-0.20;99.90
7000;DHT22;3540;53.242;10.408;2024-03-08T06:46:15;-0.20;99.90
7000;DHT22;3540;53.242;10.408;2024-03-08T06:48:40;-0.20;99.90
7000;DHT22;3540;53.242;10.408;2024-03-08T06:51:06;-0.20;99.90
7000;DHT22;3540;53.242;10.408;2024-03-08T06:53:32;-0.20;99.90
7000;DHT22;3540;53.242;10.408;2024-03-08T06:55:58;-0.20;99.90
7000;DHT22;3540;53.242;10.408;2024-03-08T06:58:24;-0.20;99.90
7000;DHT22;3540;53.242;10.408;2024-03-08T07:00:50;-0.10;99.90
7000;DHT22;3540;53.242;10.408;2024-03-08T07:03:18;0.00;99.90
7000;DHT22;3540;53.242;10.408;2024-03-08T07:05:44;0.00;99.90
7000;DHT22;3540;53.242;10.408;2024-03-08T07:08:10;0.10;99.90
7000;DHT22;3540;53.242;10.408;2024-03-08T07:10:39;0.10;99.90
7000;DHT22;3540;53.242;10.408;2024-03-08T07:13:07;0.20;99.90
7000;DHT22;3540;53.242;10.408;2024-03-08T07:15:33;0.20;99.90
7000;DHT22;3540;53.242;10.408;2024-03-08T07:17:58;0.30;99.90
7000;DHT22;3540;53.242;10.408;2024-03-08T07:20:25;0.40;99.90
7000;DHT22;3540;53.242;10.408;2024-03-08T07:22:50;0.40;99.90
7000;DHT22;3540;53.242;10.408;2024-03-08T07:25:17;0.50;99.90
7000;DHT22;3540;53.242;10.408;2024-03-08T07:27:47;0.60;99.90
7000;DHT22;3540;53.242;10.408;2024-03-08T07:30:13;0.70;99.90
7000;DHT22;3540;53.242;10.408;2024-03-08T07:32:58;0.80;99.90
7000;DHT22;3540;53.242;10.408;2024-03-08T07:35:24;0.80;99.90
7000;DHT22;3540;53.242;10.408;2024-03-08T07:37:52;0.90;99.90
7000;DHT22;3540;53.242;10.408;2024-03-08T07:40:23;1.00;99.90
7000;DHT22;3540;53.242;10.408;2024-03-08T07:42:52;1.10;99.90
7000;DHT22;3540;53.242;10.408;2024-03-08T07:45:17;1.10;99.90
7000;DHT22;3540;53.242;10.408;2024-03-08T07:47:43;1.20;99.90
7000;DHT22;3540;53.242;10.408;2024-03-08T07:50:09;1.40;99.90
7000;DHT22;3540;53.242;10.408;2024-03-08T07:52:35;1.50;99.90
7000;DHT22;3540;53.242;10.408;2024-03-08T07:55:04;1.50;99.90
7000;DHT22;3540;53.242;10.408;2024-03-08T07:57:31;1.70;99.90
7000;DHT22;3540;53.242;10.408;2024-03-08T07:59:57;1.70;99.90
7000;DHT22;3540;53.242;10.408;2024-03-08T08:02:23;1.70;99.90
7000;DHT22;3540;53.242;10.408;2024-03-08T08:04:49;1.80;99.90
7000;DHT22;3540;53.242;10.408;2024-03-08T08:07:14;1.80;99.90
7000;DHT22;3540;53.242;10.408;2024-03-08T08:09:41;1.90;99.90
7000;DHT22;3540;53.242;10.408;2024-03-08T08:12:08;2.00;99.90
7000;DHT22;3540;53.242;10.408;2024-03-08T08:14:38;2.10;99.90
7000;DHT22;3540;53.242;10.408;2024-03-08T08:17:04;2.30;99.90
7000;DHT22;3540;53.242;10.408;2024-03-08T08:19:30;2.50;99.90
7000;DHT22;3540;53.242;10.408;2024-03-08T08:21:57;2.70;99.90
7000;DHT22;3540;53.242;10.408;2024-03-08T08:24:23;2.40;99.90
7000;DHT22;3540;53.242;10.408;2024-03-08T08:26:49;2.60;99.90
7000;DHT22;3540;53.242;10.408;2024-03-08T08:29:16;2.80;99.90
7000;DHT22;3540;53.242;10.408;2024-03-08T08:31:41;2.90;99.90
7000;DHT22;3540;53.242;10.408;2024-03-08T08:34:09;2.80;99.90
7000;DHT22;3540;53.242;10.408;2024-03-08T08:36:37;2.90;99.90
7000;DHT22;3540;53.242;10.408;2024-03-08T08:39:03;3.10;99.90
7000;DHT22;3540;53.242;10.408;2024-03-08T08:41:29;3.10;99.90
7000;DHT22;3540;53.242;10.408;2024-03-08T08:43:55;3.10;99.90
7000;DHT22;3540;53.242;10.408;2024-03-08T08:46:21;3.30;99.90
7000;DHT22;3540;53.242;10.408;2024-03-08T08:48:46;3.50;99.90
7000;DHT22;3540;53.242;10.408;2024-03-08T08:51:12;3.70;99.90
7000;DHT22;3540;53.242;10.408;2024-03-08T08:53:42;3.80;99.90
7000;DHT22;3540;53.242;10.408;2024-03-08T08:56:15;3.70;99.90
7000;DHT22;3540;53.242;10.408;2024-03-08T08:58:41;3.60;99.90
7000;DHT22;3540;53.242;10.408;2024-03-08T09:01:08;3.70;99.90
7000;DHT22;3540;53.242;10.408;2024-03-08T09:03:36;3.90;99.90
7000;DHT22;3540;53.242;10.408;2024-03-08T09:06:06;3.90;99.90
7000;DHT22;3540;53.242;10.408;2024-03-08T09:08:44;4.00;99.90
7000;DHT22;3540;53.242;10.408;2024-03-08T09:11:10;4.10;99.90
7000;DHT22;3540;53.242;10.408;2024-03-08T09:13:35;3.90;99.90
7000;DHT22;3540;53.242;10.408;2024-03-08T09:16:04;3.90;99.90
7000;DHT22;3540;53.242;10.408;2024-03-08T09:18:31;4.00;99.90
7000;DHT22;3540;53.242;10.408;2024-03-08T09:20:58;4.10;99.90
7000;DHT22;3540;53.242;10.408;2024-03-08T09:23:23;4.30;99.90
7000;DHT22;3540;53.242;10.408;2024-03-08T09:25:49;4.30;99.90
7000;DHT22;3540;53.242;10.408;2024-03-08T09:28:15;4.60;99.90
7000;DHT22;3540;53.242;10.408;2024-03-08T09:30:41;4.50;99.90
7000;DHT22;3540;53.242;10.408;2024-03-08T09:33:07;4.50;99.90
7000;DHT22;3540;53.242;10.408;2024-03-08T09:35:33;4.80;99.90
7000;DHT22;3540;53.242;10.408;2024-03-08T09:37:58;4.80;99.90
7000;DHT22;3540;53.242;10.408;2024-03-08T09:40:24;4.70;99.90
7000;DHT22;3540;53.242;10.408;2024-03-08T09:42:51;5.00;99.90
7000;DHT22;3540;53.242;10.408;2024-03-08T09:45:20;5.00;99.90
7000;DHT22;3540;53.242;10.408;2024-03-08T09:47:47;5.00;99.90
7000;DHT22;3540;53.242;10.408;2024-03-08T09:50:14;5.10;99.90
7000;DHT22;3540;53.242;10.408;2024-03-08T09:52:42;4.80;99.90
7000;DHT22;3540;53.242;10.408;2024-03-08T09:55:10;5.20;99.90
7000;DHT22;3540;53.242;10.408;2024-03-08T09:57:37;5.40;99.90
7000;DHT22;3540;53.242;10.408;2024-03-08T10:00:04;5.30;99.90
7000;DHT22;3540;53.242;10.408;2024-03-08T10:03:02;5.40;99.90
7000;DHT22;3540;53.242;10.408;2024-03-08T10:05:30;5.40;99.90
7000;DHT22;3540;53.242;10.408;2024-03-08T10:07:55;5.60;99.90
7000;DHT22;3540;53.242;10.408;2024-03-08T10:10:21;5.80;99.90
7000;DHT22;3540;53.242;10.408;2024-03-08T10:12:48;6.00;99.90
7000;DHT22;3540;53.242;10.408;2024-03-08T10:15:15;5.90;99.90
7000;DHT22;3540;53.242;10.408;2024-03-08T10:17:42;5.80;99.90
7000;DHT22;3540;53.242;10.408;2024-03-08T10:20:18;5.40;99.90
7000;DHT22;3540;53.242;10.408;2024-03-08T10:22:44;5.50;99.90
7000;DHT22;3540;53.242;10.408;2024-03-08T10:25:11;5.40;99.90
7000;DHT22;3540;53.242;10.408;2024-03-08T10:27:41;5.60;99.90
7000;DHT22;3540;53.242;10.408;2024-03-08T10:30:16;5.90;99.90
7000;DHT22;3540;53.242;10.408;2024-03-08T10:32:47;6.20;99.90
7000;DHT22;3540;53.242;10.408;2024-03-08T10:35:13;6.40;99.90
7000;DHT22;3540;53.242;10.408;2024-03-08T10:37:46;5.80;99.90
7000;DHT22;3540;53.242;10.408;2024-03-08T10:40:19;5.90;99.90
7000;DHT22;3540;53.242;10.408;2024-03-08T10:43:03;6.30;99.90
7000;DHT22;3540;53.242;10.408;2024-03-08T10:45:38;6.70;99.90
7000;DHT22;3540;53.242;10.408;2024-03-08T10:48:28;6.80;99.90
7000;DHT22;3540;53.242;10.408;2024-03-08T10:50:59;6.80;99.90
7000;DHT22;3540;53.242;10.408;2024-03-08T10:53:27;7.00;99.90
7000;DHT22;3540;53.242;10.408;2024-03-08T10:55:56;7.00;99.90
7000;DHT22;3540;53.242;10.408;2024-03-08T10:58:23;6.60;99.90
7000;DHT22;3540;53.242;10.408;2024-03-08T11:00:55;6.70;99.90
7000;DHT22;3540;53.242;10.408;2024-03-08T11:06:07;7.10;99.90
7000;DHT22;3540;53.242;10.408;2024-03-08T11:08:33;7.30;99.90
7000;DHT22;3540;53.242;10.408;2024-03-08T11:11:01;7.30;99.90
7000;DHT22;3540;53.242;10.408;2024-03-08T11:13:41;7.50;99.90
7000;DHT22;3540;53.242;10.408;2024-03-08T11:16:13;7.30;99.90
7000;DHT22;3540;53.242;10.408;2024-03-08T11:19:23;7.40;99.90
7000;DHT22;3540;53.242;10.408;2024-03-08T11:22:03;7.50;99.90
7000;DHT22;3540;53.242;10.408;2024-03-08T11:24:37;7.70;99.90
7000;DHT22;3540;53.242;10.408;2024-03-08T11:27:06;7.10;99.90
7000;DHT22;3540;53.242;10.408;2024-03-08T11:29:33;7.40;99.90
7000;DHT22;3540;53.242;10.408;2024-03-08T11:32:10;7.30;99.90
7000;DHT22;3540;53.242;10.408;2024-03-08T11:34:43;7.30;99.90
7000;DHT22;3540;53.242;10.408;2024-03-08T11:37:14;7.60;99.90
7000;DHT22;3540;53.242;10.408;2024-03-08T11:39:52;7.40;99.90
7000;DHT22;3540;53.242;10.408;2024-03-08T11:42:24;7.70;99.90
7000;DHT22;3540;53.242;10.408;2024-03-08T11:44:52;7.70;99.90
7000;DHT22;3540;53.242;10.408;2024-03-08T11:47:18;7.40;99.90
7000;DHT22;3540;53.242;10.408;2024-03-08T11:49:44;7.60;99.90
7000;DHT22;3540;53.242;10.408;2024-03-08T11:52:11;7.60;99.90
7000;DHT22;3540;53.242;10.408;2024-03-08T11:54:40;7.70;99.90
7000;DHT22;3540;53.242;10.408;2024-03-08T11:57:06;7.80;99.90
7000;DHT22;3540;53.242;10.408;2024-03-08T11:59:32;7.60;99.90
7000;DHT22;3540;53.242;10.408;2024-03-08T12:02:05;7.90;99.90
7000;DHT22;3540;53.242;10.408;2024-03-08T12:04:32;8.20;99.90
7000;DHT22;3540;53.242;10.408;2024-03-08T12:07:01;8.40;99.90
7000;DHT22;3540;53.242;10.408;2024-03-08T12:09:28;7.90;99.90
7000;DHT22;3540;53.242;10.408;2024-03-08T12:11:54;7.70;99.90
7000;DHT22;3540;53.242;10.408;2024-03-08T12:14:20;7.50;99.90
7000;DHT22;3540;53.242;10.408;2024-03-08T12:16:48;7.80;99.90
7000;DHT22;3540;53.242;10.408;2024-03-08T12:19:15;8.30;99.90
7000;DHT22;3540;53.242;10.408;2024-03-08T12:21:42;8.50;99.90
7000;DHT22;3540;53.242;10.408;2024-03-08T12:24:15;8.20;99.90
7000;DHT22;3540;53.242;10.408;2024-03-08T12:26:45;8.20;99.90
7000;DHT22;3540;53.242;10.408;2024-03-08T12:29:29;8.50;99.90
7000;DHT22;3540;53.242;10.408;2024-03-08T12:31:59;8.60;99.90
7000;DHT22;3540;53.242;10.408;2024-03-08T12:34:26;8.50;99.90
7000;DHT22;3540;53.242;10.408;2024-03-08T12:36:54;8.50;99.90
7000;DHT22;3540;53.242;10.408;2024-03-08T12:39:21;8.70;99.90
7000;DHT22;3540;53.242;10.408;2024-03-08T12:41:48;8.80;99.90
7000;DHT22;3540;53.242;10.408;2024-03-08T12:44:17;8.90;99.90
7000;DHT22;3540;53.242;10.408;2024-03-08T12:46:44;8.30;99.90
7000;DHT22;3540;53.242;10.408;2024-03-08T12:49:10;8.10;99.90
7000;DHT22;3540;53.242;10.408;2024-03-08T12:51:38;7.90;99.90
7000;DHT22;3540;53.242;10.408;2024-03-08T12:54:07;8.30;99.90
7000;DHT22;3540;53.242;10.408;2024-03-08T12:56:33;8.40;99.90
7000;DHT22;3540;53.242;10.408;2024-03-08T12:59:00;8.10;99.90
7000;DHT22;3540;53.242;10.408;2024-03-08T13:01:26;8.20;99.90
7000;DHT22;3540;53.242;10.408;2024-03-08T13:03:52;8.60;99.90
7000;DHT22;3540;53.242;10.408;2024-03-08T13:06:19;8.50;99.90
7000;DHT22;3540;53.242;10.408;2024-03-08T13:08:50;8.10;99.90
7000;DHT22;3540;53.242;10.408;2024-03-08T13:11:16;8.20;99.90
7000;DHT22;3540;53.242;10.408;2024-03-08T13:13:43;8.70;99.90
7000;DHT22;3540;53.242;10.408;2024-03-08T13:16:09;8.60;99.90
7000;DHT22;3540;53.242;10.408;2024-03-08T13:18:36;8.70;99.90
7000;DHT22;3540;53.242;10.408;2024-03-08T13:21:02;8.30;99.90
7000;DHT22;3540;53.242;10.408;2024-03-08T13:23:33;8.70;99.90
7000;DHT22;3540;53.242;10.408;2024-03-08T13:26:05;8.80;99.90
7000;DHT22;3540;53.242;10.408;2024-03-08T13:28:31;8.90;99.90
7000;DHT22;3540;53.242;10.408;2024-03-08T13:31:04;8.90;99.90
7000;DHT22;3540;53.242;10.408;2024-03-08T13:33:38;8.90;99.90
7000;DHT22;3540;53.242;10.408;2024-03-08T13:36:05;9.10;99.90
7000;DHT22;3540;53.242;10.408;2024-03-08T13:38:32;9.10;99.90
7000;DHT22;3540;53.242;10.408;2024-03-08T13:40:59;8.90;99.90
7000;DHT22;3540;53.242;10.408;2024-03-08T13:43:24;8.90;99.90
7000;DHT22;3540;53.242;10.408;2024-03-08T13:45:50;9.00;99.90
7000;DHT22;3540;53.242;10.408;2024-03-08T13:48:18;9.10;99.90
7000;DHT22;3540;53.242;10.408;2024-03-08T13:50:43;8.80;99.90
7000;DHT22;3540;53.242;10.408;2024-03-08T13:53:09;8.50;99.90
7000;DHT22;3540;53.242;10.408;2024-03-08T13:55:35;8.20;99.90
7000;DHT22;3540;53.242;10.408;2024-03-08T13:58:01;8.40;99.90
7000;DHT22;3540;53.242;10.408;2024-03-08T14:00:28;8.80;99.90
7000;DHT22;3540;53.242;10.408;2024-03-08T14:02:58;8.60;99.90
7000;DHT22;3540;53.242;10.408;2024-03-08T14:05:24;8.60;99.90
7000;DHT22;3540;53.242;10.408;2024-03-08T14:07:50;8.70;99.90
7000;DHT22;3540;53.242;10.408;2024-03-08T14:10:16;8.70;99.90
7000;DHT22;3540;53.242;10.408;2024-03-08T14:12:45;8.80;99.90
7000;DHT22;3540;53.242;10.408;2024-03-08T14:15:13;8.70;99.90
7000;DHT22;3540;53.242;10.408;2024-03-08T14:17:39;8.80;99.90
7000;DHT22;3540;53.242;10.408;2024-03-08T14:20:05;8.80;99.90
7000;DHT22;3540;53.242;10.408;2024-03-08T14:22:31;8.30;99.90
7000;DHT22;3540;53.242;10.408;2024-03-08T14:24:57;8.60;99.90
7000;DHT22;3540;53.242;10.408;2024-03-08T14:27:22;8.70;99.90
7000;DHT22;3540;53.242;10.408;2024-03-08T14:29:48;8.50;99.90
7000;DHT22;3540;53.242;10.408;2024-03-08T14:32:14;8.30;99.90
7000;DHT22;3540;53.242;10.408;2024-03-08T14:34:40;8.60;99.90
7000;DHT22;3540;53.242;10.408;2024-03-08T14:37:05;8.70;99.90
7000;DHT22;3540;53.242;10.408;2024-03-08T14:39:37;8.70;99.90
7000;DHT22;3540;53.242;10.408;2024-03-08T14:42:02;8.50;99.90
7000;DHT22;3540;53.242;10.408;2024-03-08T14:44:29;8.70;99.90
7000;DHT22;3540;53.242;10.408;2024-03-08T14:46:58;8.60;99.90
7000;DHT22;3540;53.242;10.408;2024-03-08T14:49:24;8.60;99.90
7000;DHT22;3540;53.242;10.408;2024-03-08T14:51:55;8.40;99.90
7000;DHT22;3540;53.242;10.408;2024-03-08T14:54:20;8.50;99.90
7000;DHT22;3540;53.242;10.408;2024-03-08T14:56:48;8.50;99.90
7000;DHT22;3540;53.242;10.408;2024-03-08T14:59:16;8.60;99.90
7000;DHT22;3540;53.242;10.408;2024-03-08T15:01:42;8.50;99.90
7000;DHT22;3540;53.242;10.408;2024-03-08T15:04:09;8.60;99.90
7000;DHT22;3540;53.242;10.408;2024-03-08T15:06:38;8.60;99.90
7000;DHT22;3540;53.242;10.408;2024-03-08T15:09:05;8.60;99.90
7000;DHT22;3540;53.242;10.408;2024-03-08T15:11:40;8.60;99.90
7000;DHT22;3540;53.242;10.408;2024-03-08T15:14:08;8.70;99.90
7000;DHT22;3540;53.242;10.408;2024-03-08T15:16:40;8.50;99.90
7000;DHT22;3540;53.242;10.408;2024-03-08T15:19:07;8.60;99.90
7000;DHT22;3540;53.242;10.408;2024-03-08T15:21:33;8.50;99.90
7000;DHT22;3540;53.242;10.408;2024-03-08T15:24:00;8.50;99.90
7000;DHT22;3540;53.242;10.408;2024-03-08T15:26:28;8.60;99.90
7000;DHT22;3540;53.242;10.408;2024-03-08T15:28:55;8.60;99.90
7000;DHT22;3540;53.242;10.408;2024-03-08T15:31:22;8.70;99.90
7000;DHT22;3540;53.242;10.408;2024-03-08T15:33:50;8.50;99.90
7000;DHT22;3540;53.242;10.408;2024-03-08T15:36:36;8.50;99.90
7000;DHT22;3540;53.242;10.408;2024-03-08T15:39:02;8.50;99.90
7000;DHT22;3540;53.242;10.408;2024-03-08T15:41:28;8.40;99.90
7000;DHT22;3540;53.242;10.408;2024-03-08T15:43:55;8.40;99.90
7000;DHT22;3540;53.242;10.408;2024-03-08T15:46:21;8.40;99.90
7000;DHT22;3540;53.242;10.408;2024-03-08T15:48:50;8.40;99.90
7000;DHT22;3540;53.242;10.408;2024-03-08T15:51:17;8.30;99.90
7000;DHT22;3540;53.242;10.408;2024-03-08T15:53:44;8.30;99.90
7000;DHT22;3540;53.242;10.408;2024-03-08T15:56:21;8.10;99.90
7000;DHT22;3540;53.242;10.408;2024-03-08T15:58:48;8.10;99.90
7000;DHT22;3540;53.242;10.408;2024-03-08T16:01:13;8.20;99.90